Time;durP1;ratioP1;P1;durP2;ratioP2;P2;SDS_P1;SDS_P2;PMS_P1;PMS_P2;Temp;Humidity;BMP_temperature;BMP_pressure;BME280_temperature;BME280_humidity;BME280_pressure;Samples;Min_cycle;Max_cycle;Signal;HPM_P1;HPM_P2
2023/03/03 00:01:29;;;;;;;29.45;12.60;;;1.80;99.90;;;;;;5073202;28;20107;-77
2023/03/03 00:03:56;;;;;;;40.63;13.02;;;1.50;99.90;;;;;;5089825;28;20135;-78
2023/03/03 00:06:23;;;;;;;30.63;13.00;;;2.00;99.90;;;;;;5056772;28;20123;-78
2023/03/03 00:08:53;;;;;;;31.15;12.30;;;1.60;99.90;;;;;;5076814;28;20035;-78
2023/03/03 00:11:20;;;;;;;41.35;10.98;;;1.60;99.90;;;;;;5109455;28;20043;-78
2023/03/03 00:13:49;;;;;;;29.23;10.68;;;1.60;99.90;;;;;;5093322;28;20044;-78
2023/03/03 00:16:35;;;;;;;47.30;11.50;;;1.60;99.90;;;;;;5092900;28;20086;-77
2023/03/03 00:19:12;;;;;;;31.35;11.73;;;1.60;99.90;;;;;;5109364;28;20040;-78
2023/03/03 00:21:41;;;;;;;27.08;11.07;;;1.60;99.90;;;;;;5109468;28;20093;-77
2023/03/03 00:24:48;;;;;;;32.05;12.00;;;2.10;99.90;;;;;;5093046;28;20036;-78
2023/03/03 00:27:34;;;;;;;48.92;11.65;;;1.70;99.90;;;;;;5109699;28;20461;-77
2023/03/03 00:30:02;;;;;;;;;;;1.60;99.90;;;;;;5109583;28;20523;-78
2023/03/03 00:32:49;;;;;;;44.97;11.20;;;1.60;99.90;;;;;;5092592;28;19923;-78
2023/03/03 00:35:34;;;;;;;30.50;11.00;;;1.60;99.90;;;;;;5092475;28;20101;-77
2023/03/03 00:38:11;;;;;;;29.77;12.25;;;2.30;99.90;;;;;;5092943;28;20058;-77
2023/03/03 00:40:39;;;;;;;50.70;11.38;;;1.60;99.90;;;;;;5090965;28;20085;-77
2023/03/03 00:43:33;;;;;;;38.13;11.60;;;2.00;99.90;;;;;;5092371;28;20040;-77
2023/03/03 00:46:00;;;;;;;72.65;11.73;;;1.90;99.90;;;;;;5109308;28;20503;-78
2023/03/03 00:48:26;;;;;;;48.63;12.27;;;1.70;99.90;;;;;;5091828;28;20058;-77
2023/03/03 00:50:55;;;;;;;51.45;11.23;;;1.70;99.90;;;;;;5099151;28;20040;-77
2023/03/03 00:53:24;;;;;;;34.40;10.95;;;1.90;99.90;;;;;;5072283;28;20044;-78
2023/03/03 00:55:52;;;;;;;44.83;11.25;;;1.80;99.90;;;;;;5088738;28;20053;-78
2023/03/03 00:58:22;;;;;;;30.50;9.55;;;1.70;99.90;;;;;;5072198;28;20474;-78
2023/03/03 01:00:51;;;;;;;33.60;9.20;;;2.20;99.90;;;;;;5089976;28;20051;-77
2023/03/03 01:03:21;;;;;;;35.17;10.77;;;1.70;99.90;;;;;;5082703;28;20040;-77
2023/03/03 01:05:48;;;;;;;36.97;10.43;;;1.70;99.90;;;;;;5108498;28;20104;-78
2023/03/03 01:08:15;;;;;;;32.13;10.02;;;1.70;99.90;;;;;;5075601;28;20610;-78
2023/03/03 01:10:54;;;;;;;42.13;10.48;;;1.80;99.90;;;;;;5106718;28;20081;-78
2023/03/03 01:13:25;;;;;;;31.27;10.48;;;2.20;99.90;;;;;;5087780;28;20079;-77
2023/03/03 01:15:52;;;;;;;29.33;10.27;;;1.80;99.90;;;;;;5071703;28;20500;-77
2023/03/03 01:18:19;;;;;;;24.52;9.55;;;2.60;99.90;;;;;;5092731;28;20101;-78
2023/03/03 01:20:46;;;;;;;50.85;10.02;;;1.80;99.90;;;;;;5082068;28;20119;-77
2023/03/03 01:23:13;;;;;;;52.83;10.75;;;1.80;99.90;;;;;;5097509;28;20766;-77
2023/03/03 01:25:40;;;;;;;28.90;9.75;;;1.90;99.90;;;;;;5107976;28;20040;-78
2023/03/03 01:28:07;;;;;;;43.50;10.85;;;1.80;99.90;;;;;;5091689;28;20137;-78
2023/03/03 01:30:34;;;;;;;45.35;10.80;;;1.80;99.90;;;;;;5091647;28;20039;-78
2023/03/03 01:33:01;;;;;;;32.42;10.77;;;1.80;99.90;;;;;;5077129;28;20048;-78
2023/03/03 01:35:28;;;;;;;34.05;10.73;;;1.80;99.90;;;;;;5071752;28;20045;-78
2023/03/03 01:37:56;;;;;;;32.47;10.15;;;1.80;99.90;;;;;;5054550;28;20048;-77
2023/03/03 01:40:26;;;;;;;34.38;10.68;;;1.80;99.90;;;;;;5071453;28;20041;-77
2023/03/03 01:42:53;;;;;;;24.50;9.07;;;1.80;99.90;;;;;;5087856;28;20078;-77
2023/03/03 01:45:25;;;;;;;28.23;9.10;;;1.90;99.90;;;;;;5071592;28;20068;-77
2023/03/03 01:47:57;;;;;;;24.95;9.80;;;2.50;99.90;;;;;;5087510;28;20393;-77
2023/03/03 01:50:44;;;;;;;37.78;9.85;;;1.80;99.90;;;;;;5088170;28;20041;-77
2023/03/03 01:53:21;;;;;;;42.45;10.57;;;1.80;99.90;;;;;;5081702;28;20468;-78
2023/03/03 01:55:50;;;;;;;34.35;10.32;;;1.80;99.90;;;;;;5091031;28;20036;-78
2023/03/03 01:58:20;;;;;;;50.92;10.25;;;1.80;99.90;;;;;;5091397;28;20040;-78
2023/03/03 02:00:52;;;;;;;32.10;10.45;;;1.80;99.90;;;;;;5091319;28;20201;-78
2023/03/03 02:03:21;;;;;;;33.90;9.25;;;1.90;99.90;;;;;;5085844;28;20041;-78
2023/03/03 02:05:49;;;;;;;56.28;9.45;;;2.30;99.90;;;;;;5101064;28;20040;-78
2023/03/03 02:08:20;;;;;;;47.65;9.35;;;1.80;99.90;;;;;;5095342;28;20131;-78
2023/03/03 02:10:47;;;;;;;25.42;8.20;;;1.80;99.90;;;;;;5111408;28;20050;-78
2023/03/03 02:13:14;;;;;;;114.53;11.80;;;1.70;99.90;;;;;;5091688;28;20046;-78
2023/03/03 02:15:41;;;;;;;49.78;9.73;;;1.70;99.90;;;;;;5090807;28;20044;-78
2023/03/03 02:18:14;;;;;;;27.35;8.75;;;1.70;99.90;;;;;;5091359;28;20077;-78
2023/03/03 02:21:02;;;;;;;72.45;10.10;;;1.70;99.90;;;;;;5091394;28;20099;-78
2023/03/03 02:23:36;;;;;;;50.22;7.80;;;1.70;99.90;;;;;;5107775;28;20666;-77
2023/03/03 02:26:13;;;;;;;29.98;8.07;;;1.70;99.90;;;;;;5111776;28;20150;-78
2023/03/03 02:28:40;;;;;;;53.67;8.15;;;2.00;99.90;;;;;;5095539;28;20075;-77
2023/03/03 02:31:14;;;;;;;22.13;7.15;;;1.70;99.90;;;;;;5095310;28;20564;-78
2023/03/03 02:33:42;;;;;;;26.17;7.68;;;1.60;99.90;;;;;;5111520;28;20044;-78
2023/03/03 02:36:18;;;;;;;48.53;7.05;;;2.30;99.90;;;;;;5095029;28;20078;-78
2023/03/03 02:39:01;;;;;;;40.63;7.65;;;1.60;99.90;;;;;;5111701;28;20093;-77
2023/03/03 02:41:58;;;;;;;66.30;8.55;;;1.50;99.90;;;;;;5111753;28;20036;-77
2023/03/03 02:44:29;;;;;;;82.80;8.35;;;1.90;99.90;;;;;;5051077;28;20112;-77
2023/03/03 02:46:56;;;;;;;36.10;7.82;;;1.50;99.90;;;;;;5094498;28;20067;-77
2023/03/03 02:49:27;;;;;;;80.82;8.38;;;2.10;99.90;;;;;;5078439;28;20097;-77
2023/03/03 02:51:54;;;;;;;102.03;8.75;;;1.60;99.90;;;;;;5078390;28;20043;-77
2023/03/03 02:54:22;;;;;;;109.35;7.60;;;1.60;99.90;;;;;;5094762;28;20040;-78
2023/03/03 02:56:49;;;;;;;61.90;6.88;;;1.80;99.90;;;;;;5074202;28;20040;-78
2023/03/03 02:59:16;;;;;;;119.72;7.97;;;1.50;99.90;;;;;;5057999;28;20039;-77
2023/03/03 03:01:43;;;;;;;56.88;6.72;;;1.70;99.90;;;;;;5058309;28;20530;-78
2023/03/03 03:04:13;;;;;;;21.90;6.50;;;2.20;99.90;;;;;;5074175;28;20041;-78
2023/03/03 03:06:40;;;;;;;84.70;7.43;;;1.40;99.90;;;;;;5088724;28;20040;-77
2023/03/03 03:09:09;;;;;;;74.88;8.13;;;1.40;99.90;;;;;;5094171;28;20032;-78
2023/03/03 03:11:36;;;;;;;58.22;7.22;;;1.40;99.90;;;;;;5094376;28;20713;-78
2023/03/03 03:14:05;;;;;;;77.60;7.22;;;1.40;99.90;;;;;;5077597;28;20036;-78
2023/03/03 03:16:32;;;;;;;20.25;8.65;;;1.70;99.90;;;;;;5101759;28;20029;-77
2023/03/03 03:19:00;;;;;;;70.15;7.97;;;1.40;99.90;;;;;;5090372;28;20044;-77
2023/03/03 03:21:27;;;;;;;45.35;8.30;;;1.30;99.90;;;;;;5090959;28;20086;-77
2023/03/03 03:23:54;;;;;;;32.42;6.70;;;1.40;99.90;;;;;;5090297;28;20037;-78
2023/03/03 03:26:21;;;;;;;26.95;6.88;;;2.10;99.90;;;;;;5074581;28;20065;-77
2023/03/03 03:28:49;;;;;;;39.22;6.57;;;1.70;99.90;;;;;;5057685;28;20123;-77
2023/03/03 03:31:16;;;;;;;30.95;7.13;;;1.40;99.90;;;;;;5074232;28;20041;-78
2023/03/03 03:33:43;;;;;;;46.17;7.57;;;1.40;99.90;;;;;;5090323;28;20063;-77
2023/03/03 03:36:10;;;;;;;42.40;7.20;;;1.40;99.90;;;;;;5056490;28;20048;-78
2023/03/03 03:38:37;;;;;;;25.80;7.43;;;1.40;99.90;;;;;;5077163;28;20458;-77
2023/03/03 03:41:05;;;;;;;22.02;7.15;;;1.40;99.90;;;;;;5109877;28;20518;-77
2023/03/03 03:43:32;;;;;;;38.00;8.48;;;1.40;99.90;;;;;;5093705;28;20042;-77
2023/03/03 03:45:59;;;;;;;43.95;8.27;;;1.40;99.90;;;;;;5109907;28;20040;-77
2023/03/03 03:48:26;;;;;;;33.33;8.43;;;1.40;99.90;;;;;;5093448;28;20056;-78
2023/03/03 03:50:52;;;;;;;35.95;9.13;;;1.50;99.90;;;;;;5077171;28;20054;-78
2023/03/03 03:53:19;;;;;;;22.55;8.00;;;1.50;99.90;;;;;;5077266;28;20400;-78
2023/03/03 03:55:46;;;;;;;21.08;8.60;;;1.40;99.90;;;;;;5077058;28;20044;-78
2023/03/03 03:58:14;;;;;;;38.38;8.05;;;2.10;99.90;;;;;;5065096;28;20110;-78
2023/03/03 04:00:41;;;;;;;22.23;7.55;;;1.40;99.90;;;;;;5104285;28;20055;-77
2023/03/03 04:03:09;;;;;;;29.50;6.95;;;1.40;99.90;;;;;;5103803;28;20029;-78
2023/03/03 04:05:36;;;;;;;24.58;6.82;;;1.40;99.90;;;;;;5073765;28;20102;-77
2023/03/03 04:08:03;;;;;;;14.18;6.53;;;1.30;99.90;;;;;;5073487;28;20115;-77
2023/03/03 04:10:30;;;;;;;30.77;7.68;;;1.30;99.90;;;;;;5073092;28;20127;-78
2023/03/03 04:12:56;;;;;;;35.28;7.35;;;1.30;99.90;;;;;;5072950;28;20079;-78
2023/03/03 04:15:23;;;;;;;23.08;7.50;;;1.70;99.90;;;;;;5073166;28;20123;-78
2023/03/03 04:17:50;;;;;;;51.60;8.73;;;1.40;99.90;;;;;;5073579;28;20087;-78
2023/03/03 04:20:17;;;;;;;27.30;6.85;;;1.20;99.90;;;;;;5090082;28;20052;-77
2023/03/03 04:22:43;;;;;;;25.27;7.50;;;1.20;99.90;;;;;;5072967;28;20523;-77
2023/03/03 04:25:14;;;;;;;35.75;6.82;;;1.20;99.90;;;;;;5066996;28;20867;-78
2023/03/03 04:27:42;;;;;;;49.15;7.68;;;2.10;99.90;;;;;;5095960;28;20508;-77
2023/03/03 04:30:10;;;;;;;75.68;7.60;;;1.10;99.90;;;;;;5092911;28;20504;-77
2023/03/03 04:32:37;;;;;;;77.88;8.60;;;1.10;99.90;;;;;;5073096;28;20079;-78
2023/03/03 04:35:04;;;;;;;83.05;7.63;;;1.00;99.90;;;;;;5089323;28;20071;-78
2023/03/03 04:37:30;;;;;;;59.63;7.60;;;1.00;99.90;;;;;;5089378;28;20052;-77
2023/03/03 04:39:57;;;;;;;34.80;7.18;;;1.30;99.90;;;;;;5072645;28;20405;-78
2023/03/03 04:42:24;;;;;;;30.10;6.57;;;1.80;99.90;;;;;;5071970;28;20078;-77
2023/03/03 04:44:50;;;;;;;52.40;6.90;;;1.00;99.90;;;;;;5056017;28;20270;-77
2023/03/03 04:47:17;;;;;;;61.22;8.65;;;1.00;99.90;;;;;;5054266;28;20059;-78
2023/03/03 04:49:44;;;;;;;92.25;6.53;;;0.90;99.90;;;;;;5080061;28;20489;-78
2023/03/03 04:52:10;;;;;;;37.92;4.97;;;0.90;99.90;;;;;;5092427;28;20061;-78
2023/03/03 04:54:37;;;;;;;41.47;6.10;;;0.90;99.90;;;;;;5092451;28;20039;-77
2023/03/03 04:57:04;;;;;;;68.95;7.40;;;0.90;99.90;;;;;;5092112;28;20040;-77
2023/03/03 04:59:31;;;;;;;42.85;4.82;;;0.90;99.90;;;;;;5090376;28;20074;-77
2023/03/03 05:01:57;;;;;;;58.00;5.05;;;0.80;99.90;;;;;;5061275;28;20074;-77
2023/03/03 05:04:24;;;;;;;47.85;4.40;;;0.80;99.90;;;;;;5092337;28;20063;-77
2023/03/03 05:06:51;;;;;;;46.85;5.03;;;0.70;99.90;;;;;;5092479;28;20123;-77
2023/03/03 05:09:17;;;;;;;48.63;4.95;;;0.70;99.90;;;;;;5075487;28;20032;-77
2023/03/03 05:11:44;;;;;;;30.40;4.55;;;0.60;99.90;;;;;;5058576;28;20040;-77
2023/03/03 05:14:11;;;;;;;74.55;4.95;;;0.60;99.90;;;;;;5072065;28;20450;-77
2023/03/03 05:16:38;;;;;;;32.22;3.90;;;1.40;99.90;;;;;;5055922;28;20127;-77
2023/03/03 05:19:04;;;;;;;20.55;5.00;;;0.50;99.90;;;;;;5071612;28;20115;-77
2023/03/03 05:21:31;;;;;;;24.17;4.60;;;0.50;99.90;;;;;;5073667;28;20072;-77
2023/03/03 05:23:58;;;;;;;38.78;4.60;;;0.50;99.90;;;;;;5055826;28;20040;-77
2023/03/03 05:26:24;;;;;;;39.67;4.43;;;0.50;99.90;;;;;;5055446;28;20036;-77
2023/03/03 05:28:51;;;;;;;15.88;4.00;;;0.90;99.90;;;;;;5038801;28;20041;-77
2023/03/03 05:31:18;;;;;;;25.25;3.72;;;0.50;99.90;;;;;;5077110;28;20117;-77
2023/03/03 05:33:45;;;;;;;23.33;3.90;;;0.30;99.90;;;;;;5075440;28;20492;-77
2023/03/03 05:36:11;;;;;;;30.48;3.80;;;0.80;99.90;;;;;;5074729;28;20147;-77
2023/03/03 05:38:38;;;;;;;19.30;4.20;;;0.30;99.90;;;;;;5075026;28;20044;-77
2023/03/03 05:41:05;;;;;;;28.55;4.07;;;0.30;99.90;;;;;;5074634;28;20043;-77
2023/03/03 05:43:31;;;;;;;17.52;3.28;;;0.20;99.90;;;;;;5074825;28;20066;-77
2023/03/03 05:45:58;;;;;;;25.25;3.42;;;0.40;99.90;;;;;;5091584;28;20047;-77
2023/03/03 05:48:25;;;;;;;21.85;3.30;;;0.20;99.90;;;;;;5074782;28;20052;-77
2023/03/03 05:50:52;;;;;;;30.25;3.38;;;0.20;99.90;;;;;;5108418;28;20126;-77
2023/03/03 05:53:18;;;;;;;11.52;2.95;;;0.30;99.90;;;;;;5071012;28;20102;-77
2023/03/03 05:55:45;;;;;;;15.35;2.92;;;0.10;99.90;;;;;;5088349;28;20404;-77
2023/03/03 05:58:12;;;;;;;6.80;2.67;;;0.00;99.90;;;;;;5054685;28;20040;-77
2023/03/03 06:00:39;;;;;;;6.28;2.75;;;0.00;99.90;;;;;;5075470;28;20040;-77
2023/03/03 06:03:05;;;;;;;16.98;3.03;;;0.00;99.90;;;;;;5104312;28;20055;-77
2023/03/03 06:05:32;;;;;;;10.40;2.90;;;0.40;99.90;;;;;;5111244;28;20400;-77
2023/03/03 06:07:59;;;;;;;23.48;2.95;;;0.00;99.90;;;;;;5095476;28;20500;-77
2023/03/03 06:10:26;;;;;;;8.43;2.65;;;-0.10;99.90;;;;;;5094988;28;20036;-77
2023/03/03 06:12:53;;;;;;;9.73;2.80;;;0.00;99.90;;;;;;5109914;28;20044;-77
2023/03/03 06:15:22;;;;;;;7.35;2.72;;;0.00;99.90;;;;;;5111297;28;20095;-77
2023/03/03 06:17:52;;;;;;;12.13;3.05;;;0.00;99.90;;;;;;5095459;28;20111;-77
2023/03/03 06:20:18;;;;;;;8.70;2.85;;;-0.10;99.90;;;;;;5078118;28;20040;-77
2023/03/03 06:22:45;;;;;;;20.38;3.00;;;-0.10;99.90;;;;;;5093530;28;20090;-77
2023/03/03 06:25:12;;;;;;;13.63;2.70;;;-0.20;99.90;;;;;;5078689;28;20122;-77
2023/03/03 06:27:39;;;;;;;12.98;2.53;;;-0.20;99.90;;;;;;5094848;28;20446;-77
2023/03/03 06:30:06;;;;;;;4.03;2.05;;;-0.20;99.90;;;;;;5112039;28;20044;-76
2023/03/03 06:32:33;;;;;;;8.73;2.35;;;-0.20;99.90;;;;;;5094815;28;20035;-77
2023/03/03 06:35:00;;;;;;;13.95;2.20;;;-0.20;99.90;;;;;;5074346;28;20037;-77
2023/03/03 06:37:26;;;;;;;4.90;1.77;;;-0.20;99.90;;;;;;5074490;28;20078;-77
2023/03/03 06:39:53;;;;;;;3.05;1.38;;;-0.20;99.90;;;;;;5042328;28;20571;-77
2023/03/03 06:42:20;;;;;;;3.75;1.73;;;-0.20;99.90;;;;;;5041819;28;20045;-77
2023/03/03 06:44:47;;;;;;;22.05;1.85;;;-0.20;99.90;;;;;;5077758;28;20036;-77
2023/03/03 06:47:13;;;;;;;2.10;0.98;;;-0.20;99.90;;;;;;5070666;28;20053;-77
2023/03/03 06:49:40;;;;;;;30.02;2.33;;;0.00;99.90;;;;;;5087550;28;20048;-77
2023/03/03 06:52:24;;;;;;;3.00;1.80;;;0.50;99.90;;;;;;5071468;28;20037;-77
2023/03/03 06:54:57;;;;;;;4.78;1.55;;;-0.20;99.90;;;;;;5060612;28;20107;-77
2023/03/03 06:57:32;;;;;;;3.10;1.30;;;-0.20;99.90;;;;;;5050754;28;20567;-77
2023/03/03 07:00:09;;;;;;;2.35;1.17;;;-0.20;99.90;;;;;;5051532;28;20041;-77
2023/03/03 07:02:36;;;;;;;3.33;1.73;;;-0.20;99.90;;;;;;5050518;28;20648;-77
2023/03/03 07:05:11;;;;;;;3.00;1.50;;;-0.20;99.90;;;;;;5043633;28;20056;-77
2023/03/03 07:07:38;;;;;;;2.30;1.10;;;-0.10;99.90;;;;;;5070547;28;20041;-77
2023/03/03 07:10:31;;;;;;;3.50;1.63;;;0.50;99.90;;;;;;5070241;28;20602;-77
2023/03/03 07:13:31;;;;;;;2.72;1.25;;;-0.10;99.90;;;;;;5067478;28;20052;-77
2023/03/03 07:16:10;;;;;;;4.07;1.95;;;-0.10;99.90;;;;;;5076480;28;20048;-77
2023/03/03 07:18:54;;;;;;;3.08;1.52;;;-0.10;99.90;;;;;;5062698;28;20054;-77
2023/03/03 07:21:23;;;;;;;4.55;2.13;;;-0.10;99.90;;;;;;5067158;28;20045;-77
2023/03/03 07:23:52;;;;;;;4.85;1.98;;;0.00;99.90;;;;;;5050351;28;20041;-77
2023/03/03 07:26:23;;;;;;;4.10;1.92;;;0.00;99.90;;;;;;5058811;28;20037;-77
2023/03/03 07:29:14;;;;;;;3.88;2.10;;;0.00;99.90;;;;;;5066808;28;20071;-77
2023/03/03 07:31:44;;;;;;;3.58;1.65;;;0.10;99.90;;;;;;5054655;28;20068;-77
2023/03/03 07:34:21;;;;;;;4.32;1.95;;;0.10;99.90;;;;;;5042062;28;20041;-77
2023/03/03 07:36:58;;;;;;;13.38;2.33;;;0.20;99.90;;;;;;5060866;28;20049;-77
2023/03/03 07:39:36;;;;;;;4.65;2.00;;;0.30;99.90;;;;;;5051471;28;20482;-76
2023/03/03 07:42:22;;;;;;;6.63;1.80;;;0.20;99.90;;;;;;5079758;28;20450;-77
2023/03/03 07:44:53;;;;;;;;;;;0.20;99.90;;;;;;5060983;28;20056;-77
2023/03/03 07:47:28;;;;;;;5.03;2.05;;;0.30;99.90;;;;;;5074369;28;19928;-77
2023/03/03 07:50:18;;;;;;;16.02;2.35;;;0.30;99.90;;;;;;5069053;28;20118;-77
2023/03/03 07:52:55;;;;;;;4.15;2.65;;;0.30;99.90;;;;;;5074921;28;20045;-77
2023/03/03 07:55:44;;;;;;;5.50;2.65;;;0.50;99.90;;;;;;5063067;28;20385;-77
2023/03/03 07:58:15;;;;;;;5.18;2.00;;;0.60;99.90;;;;;;5062043;28;20418;-77
2023/03/03 08:01:03;;;;;;;5.93;2.13;;;0.70;99.90;;;;;;5055657;28;20703;-77
2023/03/03 08:03:34;;;;;;;5.55;1.90;;;0.80;99.90;;;;;;5054782;28;20790;-77
2023/03/03 08:06:22;;;;;;;4.30;2.13;;;0.80;99.90;;;;;;5066393;28;20085;-77
2023/03/03 08:08:49;;;;;;;6.47;2.17;;;0.80;99.90;;;;;;5053823;28;20032;-77
2023/03/03 08:11:15;;;;;;;5.13;2.33;;;0.90;99.90;;;;;;5053499;28;20127;-77
2023/03/03 08:13:44;;;;;;;6.43;2.13;;;0.90;99.90;;;;;;5053434;28;20048;-77
2023/03/03 08:16:10;;;;;;;5.10;2.53;;;0.90;99.90;;;;;;5069849;28;20110;-77
2023/03/03 08:18:47;;;;;;;6.75;2.50;;;0.90;99.90;;;;;;5054187;28;20049;-77
2023/03/03 08:21:26;;;;;;;8.85;2.05;;;0.90;99.90;;;;;;5033860;28;20056;-77
2023/03/03 08:23:53;;;;;;;6.53;2.58;;;1.00;99.90;;;;;;5050560;28;20420;-77
2023/03/03 08:26:22;;;;;;;4.80;1.92;;;1.00;99.90;;;;;;5058922;28;20114;-77
2023/03/03 08:28:49;;;;;;;7.50;2.22;;;1.10;99.90;;;;;;5058547;28;20521;-77
2023/03/03 08:31:16;;;;;;;4.35;1.80;;;1.10;99.90;;;;;;5068856;28;20473;-77
2023/03/03 08:33:44;;;;;;;5.72;2.38;;;1.20;99.90;;;;;;5048567;28;20069;-77
2023/03/03 08:36:11;;;;;;;4.88;2.35;;;1.20;99.90;;;;;;5048810;28;20049;-76
2023/03/03 08:38:38;;;;;;;8.07;3.05;;;1.30;99.90;;;;;;5032217;28;20056;-76
2023/03/03 08:41:05;;;;;;;6.82;2.42;;;1.40;99.90;;;;;;5060050;28;20072;-76
2023/03/03 08:43:32;;;;;;;7.43;3.50;;;1.40;99.90;;;;;;5049044;28;20033;-76
2023/03/03 08:46:04;;;;;;;5.93;2.50;;;2.20;99.90;;;;;;5057194;28;20033;-77
2023/03/03 08:48:32;;;;;;;5.90;2.13;;;1.50;99.90;;;;;;5061553;28;20604;-76
2023/03/03 08:50:59;;;;;;;4.60;2.08;;;1.30;99.90;;;;;;5069869;28;20110;-76
2023/03/03 08:53:26;;;;;;;4.80;2.00;;;1.60;99.90;;;;;;5070603;28;20033;-76
2023/03/03 08:55:53;;;;;;;4.30;1.88;;;1.60;99.90;;;;;;5064373;28;20041;-76
2023/03/03 08:58:21;;;;;;;6.97;2.10;;;1.70;99.90;;;;;;5067385;28;20467;-77
2023/03/03 09:00:47;;;;;;;4.90;1.95;;;1.60;99.90;;;;;;5060838;28;20099;-77
2023/03/03 09:03:14;;;;;;;4.43;1.95;;;1.70;99.90;;;;;;5047488;28;20038;-76
2023/03/03 09:05:41;;;;;;;5.22;2.20;;;1.80;99.90;;;;;;5047328;28;20041;-76
2023/03/03 09:08:09;;;;;;;5.30;2.40;;;1.90;99.90;;;;;;5031451;28;20045;-76
2023/03/03 09:10:36;;;;;;;5.07;2.47;;;2.20;99.90;;;;;;5068044;28;20132;-76
2023/03/03 09:13:14;;;;;;;7.40;2.30;;;2.10;99.90;;;;;;5064771;28;20469;-77
2023/03/03 09:15:41;;;;;;;6.47;2.30;;;2.20;99.90;;;;;;5055139;28;20555;-77
2023/03/03 09:18:07;;;;;;;3.95;2.00;;;2.40;99.90;;;;;;5056650;28;20037;-77
2023/03/03 09:20:39;;;;;;;4.05;2.10;;;2.40;99.90;;;;;;5060355;28;20064;-77
2023/03/03 09:23:37;;;;;;;6.85;2.53;;;2.50;99.90;;;;;;5062385;28;20037;-77
2023/03/03 09:26:25;;;;;;;8.52;2.33;;;2.50;99.90;;;;;;5048135;28;20056;-77
2023/03/03 09:29:08;;;;;;;6.15;2.38;;;2.60;99.90;;;;;;5062755;28;20025;-77
2023/03/03 09:31:42;;;;;;;4.10;1.92;;;2.60;99.90;;;;;;5067833;28;20045;-77
2023/03/03 09:34:19;;;;;;;4.15;2.05;;;2.70;99.90;;;;;;5084252;28;20041;-77
2023/03/03 09:36:46;;;;;;;5.10;1.73;;;2.70;99.90;;;;;;5067317;28;20394;-78
2023/03/03 09:39:18;;;;;;;7.30;2.45;;;2.70;99.90;;;;;;5050981;28;20044;-77
2023/03/03 09:41:44;;;;;;;5.05;2.40;;;2.70;99.90;;;;;;5067429;28;20083;-77
2023/03/03 09:44:41;;;;;;;4.50;2.05;;;2.80;99.90;;;;;;5067629;28;20079;-77
2023/03/03 09:47:20;;;;;;;6.43;2.85;;;2.80;99.90;;;;;;5074599;28;20066;-77
2023/03/03 09:50:33;;;;;;;10.73;2.97;;;2.80;99.90;;;;;;5072258;28;20536;-77
2023/03/03 09:53:12;;;;;;;11.18;3.85;;;2.80;99.90;;;;;;5010242;28;20090;-77
2023/03/03 09:56:00;;;;;;;11.50;3.83;;;2.90;99.90;;;;;;5070780;28;20063;-77
2023/03/03 09:58:50;;;;;;;7.72;3.72;;;2.90;99.90;;;;;;5072479;28;20119;-77
2023/03/03 10:01:41;;;;;;;7.22;3.60;;;3.00;99.90;;;;;;5071270;28;20048;-78
2023/03/03 10:04:14;;;;;;;6.18;2.90;;;3.00;99.90;;;;;;5087262;28;20048;-77
2023/03/03 10:06:50;;;;;;;5.88;3.05;;;3.10;99.90;;;;;;5070761;28;20076;-77
2023/03/03 10:09:17;;;;;;;;;;;3.20;99.90;;;;;;5088214;28;20556;-78
2023/03/03 10:12:14;;;;;;;7.28;2.72;;;3.30;99.90;;;;;;5072361;28;20007;-77
2023/03/03 10:15:11;;;;;;;6.85;3.17;;;3.50;99.90;;;;;;5080947;28;20051;-77
2023/03/03 10:17:51;;;;;;;5.18;2.38;;;3.60;99.90;;;;;;5079168;28;20040;-77
2023/03/03 10:20:39;;;;;;;9.32;3.00;;;3.70;99.90;;;;;;5075891;28;20041;-77
2023/03/03 10:23:29;;;;;;;7.28;2.83;;;3.80;99.90;;;;;;5104076;28;20084;-77
2023/03/03 10:26:09;;;;;;;7.00;2.97;;;3.90;99.90;;;;;;5091641;28;20048;-77
2023/03/03 10:29:10;;;;;;;6.45;2.80;;;3.90;99.90;;;;;;5084105;28;20043;-77
2023/03/03 10:31:49;;;;;;;4.32;2.25;;;4.00;99.90;;;;;;5083820;28;20120;-77
2023/03/03 10:34:38;;;;;;;5.88;2.42;;;4.10;99.90;;;;;;5078921;28;20409;-77
2023/03/03 10:37:46;;;;;;;6.18;2.35;;;4.20;99.90;;;;;;5081610;28;20040;-78
2023/03/03 10:40:34;;;;;;;4.28;2.50;;;4.40;99.90;;;;;;5013573;28;20046;-77
2023/03/03 10:43:13;;;;;;;6.60;2.40;;;4.60;99.90;;;;;;5084443;28;20066;-77
2023/03/03 10:46:01;;;;;;;7.75;2.25;;;4.70;99.90;;;;;;5080264;28;20048;-77
2023/03/03 10:48:52;;;;;;;9.35;2.67;;;4.80;99.90;;;;;;5064476;28;20053;-77
2023/03/03 10:51:47;;;;;;;5.28;2.35;;;4.90;99.90;;;;;;5058666;28;20494;-77
2023/03/03 10:54:57;;;;;;;6.22;2.58;;;5.10;99.90;;;;;;5070418;28;20080;-77
2023/03/03 10:57:27;;;;;;;5.18;2.30;;;5.30;99.90;;;;;;5053180;28;20517;-78
2023/03/03 11:00:13;;;;;;;7.78;2.78;;;5.50;99.90;;;;;;5069383;28;20048;-77
2023/03/03 11:03:02;;;;;;;4.45;2.28;;;5.60;99.90;;;;;;5070523;28;20044;-77
2023/03/03 11:05:39;;;;;;;4.53;2.20;;;5.70;99.90;;;;;;5070780;28;20127;-78
2023/03/03 11:08:17;;;;;;;6.00;2.10;;;5.80;99.90;;;;;;5087352;28;20045;-78
2023/03/03 11:11:16;;;;;;;5.35;2.33;;;5.90;99.90;;;;;;5068606;28;20048;-78
2023/03/03 11:14:17;;;;;;;4.97;2.08;;;5.90;99.90;;;;;;5087286;28;20070;-77
2023/03/03 11:16:54;;;;;;;8.40;1.98;;;5.90;99.90;;;;;;5078445;28;20045;-77
2023/03/03 11:19:35;;;;;;;4.10;1.88;;;5.90;99.90;;;;;;5073194;28;20049;-77
2023/03/03 11:22:32;;;;;;;4.18;1.98;;;6.00;99.90;;;;;;5078140;28;20045;-77
2023/03/03 11:25:15;;;;;;;4.32;1.75;;;6.20;99.90;;;;;;5062396;28;20482;-77
2023/03/03 11:28:08;;;;;;;4.93;1.95;;;6.40;99.90;;;;;;5066955;28;20032;-77
2023/03/03 11:30:51;;;;;;;4.50;1.58;;;6.50;99.90;;;;;;5069657;28;20044;-77
2023/03/03 11:33:24;;;;;;;4.60;1.65;;;6.50;99.90;;;;;;5085767;28;20045;-77
2023/03/03 11:35:54;;;;;;;3.90;1.90;;;6.50;99.90;;;;;;5058372;28;20517;-77
2023/03/03 11:38:39;;;;;;;4.18;1.80;;;6.50;99.90;;;;;;5077243;28;20516;-77
2023/03/03 11:41:20;;;;;;;3.65;1.55;;;6.50;99.90;;;;;;5083275;28;20505;-77
2023/03/03 11:44:19;;;;;;;5.50;1.52;;;6.50;99.90;;;;;;5086502;28;20822;-77
2023/03/03 11:47:00;;;;;;;4.85;1.50;;;6.40;99.90;;;;;;5062725;28;20041;-77
2023/03/03 11:49:38;;;;;;;2.65;1.40;;;6.30;99.90;;;;;;5092183;28;20167;-77
2023/03/03 11:52:17;;;;;;;4.32;1.92;;;6.20;99.90;;;;;;5095792;28;20043;-77
2023/03/03 11:54:47;;;;;;;2.85;1.70;;;6.20;99.90;;;;;;5100178;28;20098;-77
2023/03/03 11:57:18;;;;;;;5.57;1.92;;;6.20;99.90;;;;;;5085190;28;20040;-77
2023/03/03 11:59:56;;;;;;;7.00;1.70;;;6.20;99.90;;;;;;5088306;28;20392;-77
2023/03/03 12:02:38;;;;;;;3.15;1.45;;;6.20;99.90;;;;;;5085753;28;20039;-77
2023/03/03 12:05:07;;;;;;;4.53;1.40;;;6.20;99.90;;;;;;5081584;28;20071;-77
2023/03/03 12:07:53;;;;;;;3.63;1.50;;;6.20;99.90;;;;;;5083319;28;20028;-77
2023/03/03 12:10:29;;;;;;;4.53;1.67;;;6.30;99.90;;;;;;5099742;28;20122;-77
2023/03/03 12:13:10;;;;;;;4.22;1.55;;;6.30;99.90;;;;;;5096992;28;20047;-77
2023/03/03 12:15:47;;;;;;;4.57;1.20;;;6.40;99.90;;;;;;5082257;28;20079;-77
2023/03/03 12:18:23;;;;;;;1.20;0.70;;;6.40;99.90;;;;;;5078500;28;20044;-77
2023/03/03 12:21:12;;;;;;;1.52;0.82;;;6.50;99.90;;;;;;5072707;28;20508;-77
2023/03/03 12:24:06;;;;;;;2.35;0.85;;;6.50;99.90;;;;;;5083914;28;20101;-77
2023/03/03 12:26:42;;;;;;;2.05;0.88;;;6.50;99.90;;;;;;5098936;28;20040;-77
2023/03/03 12:29:28;;;;;;;6.32;0.98;;;6.50;99.90;;;;;;5083805;28;20042;-78
2023/03/03 12:32:20;;;;;;;3.17;0.95;;;6.60;99.90;;;;;;5084667;28;20036;-77
2023/03/03 12:35:17;;;;;;;2.78;0.90;;;6.50;99.90;;;;;;5072951;28;20063;-77
2023/03/03 12:38:19;;;;;;;1.15;0.77;;;6.60;99.90;;;;;;5073394;28;20529;-77
2023/03/03 12:41:06;;;;;;;4.05;0.93;;;6.70;99.90;;;;;;5094605;28;20086;-77
2023/03/03 12:43:45;;;;;;;0.70;0.50;;;6.80;99.90;;;;;;5099353;28;20504;-77
2023/03/03 12:46:43;;;;;;;1.95;0.82;;;6.90;99.90;;;;;;5087265;28;20028;-77
2023/03/03 12:49:10;;;;;;;1.20;0.60;;;6.80;99.90;;;;;;5097507;28;20433;-77
2023/03/03 12:52:07;;;;;;;1.95;0.85;;;6.90;99.90;;;;;;5078589;28;20040;-77
2023/03/03 12:54:45;;;;;;;1.50;0.90;;;6.80;99.90;;;;;;5086433;28;20488;-78
2023/03/03 12:57:41;;;;;;;0.90;0.60;;;6.90;99.90;;;;;;5108673;28;20165;-77
2023/03/03 13:00:41;;;;;;;1.27;0.60;;;7.00;99.90;;;;;;5099905;28;20111;-77
2023/03/03 13:03:26;;;;;;;0.82;0.50;;;7.00;99.90;;;;;;5088469;28;20097;-77
2023/03/03 13:06:21;;;;;;;1.10;0.70;;;7.00;99.90;;;;;;5091165;28;20127;-77
2023/03/03 13:09:15;;;;;;;2.15;0.85;;;7.00;99.90;;;;;;5099077;28;20040;-78
2023/03/03 13:11:56;;;;;;;2.03;0.60;;;7.10;99.90;;;;;;5091060;28;20487;-78
2023/03/03 13:14:43;;;;;;;2.13;0.85;;;7.00;99.90;;;;;;5095717;28;20420;-78
2023/03/03 13:17:39;;;;;;;1.15;0.80;;;7.00;99.90;;;;;;5088216;28;20129;-78
2023/03/03 13:20:18;;;;;;;1.70;0.65;;;6.90;99.90;;;;;;5073120;28;20520;-80
2023/03/03 13:23:07;;;;;;;3.03;0.80;;;7.00;99.90;;;;;;5081207;28;20042;-76
2023/03/03 13:25:49;;;;;;;4.82;0.93;;;7.00;99.90;;;;;;5071571;28;20043;-76
2023/03/03 13:28:35;;;;;;;2.42;0.93;;;6.90;99.90;;;;;;5092651;28;20036;-77